Saturday, January 20, 2018, 10:03 AM EST
Back to Local

KBWI, Baltimore-washington International

Location: Glen Burnie, MD, United States Lat: 39.167
Local Time: 10:03 AM EST (15:03 GMT) Lon: -76.683
Time Zone: US/Eastern Elev: 147 ft

Show me the last for .
Show Decoded

2018-01-20 08:54 METAR KBWI 201354Z 25003KT 10SM FEW110 SCT200 SCT250 03/M07 A3001 RMK AO2 SLP165
                 T00331072 =
2018-01-20 07:54 METAR KBWI 201254Z 26003KT 10SM FEW110 SCT250 M01/M08 A3000 RMK AO2 SLP159
                 T10061083 =
2018-01-20 06:54 METAR KBWI 201154Z 22006KT 10SM FEW150 SCT250 M02/M08 A2998 RMK AO2 SLP154
                 T10221078 10000 21033 51004 =
2018-01-20 05:54 METAR KBWI 201054Z 23004KT 10SM FEW250 M02/M08 A2998 RMK AO2 SLP153 T10221083 =
2018-01-20 04:54 METAR KBWI 200954Z 21006KT 10SM CLR M03/M08 A2998 RMK AO2 SLP151 T10331078 =
2018-01-20 03:54 METAR KBWI 200854Z 24003KT 10SM CLR M02/M08 A2997 RMK AO2 SLP149 T10221078 56011
                 =
2018-01-20 01:54 METAR KBWI 200654Z 28003KT 10SM CLR M03/M07 A2999 RMK AO2 SLP154 T10281067 =
2018-01-20 00:54 METAR KBWI 200554Z 27003KT 10SM CLR M03/M07 A3000 RMK AO2 SLP160 T10281067 10028
                 21044 58010 =
2018-01-19 23:54 METAR KBWI 200454Z 00000KT 10SM CLR M02/M07 A3001 RMK AO2 SLP163 T10171072
                 401111067 =
2018-01-19 22:54 METAR KBWI 200354Z 26003KT 10SM CLR M02/M07 A3003 RMK AO2 SLP169 T10221067 =
2018-01-19 21:54 METAR KBWI 200254Z 00000KT 10SM CLR M01/M07 A3003 RMK AO2 SLP171 T10111072 58000
                 =
2018-01-19 20:54 METAR KBWI 200154Z 00000KT 10SM CLR M02/M07 A3003 RMK AO2 SLP172 T10171072 =
2018-01-19 19:54 METAR KBWI 200054Z 00000KT 10SM CLR 01/M07 A3004 RMK AO2 SLP173 T00061072 =
2018-01-19 18:54 METAR KBWI 192354Z 00000KT 10SM FEW250 03/M08 A3003 RMK AO2 SLP171 T00281078
                 10111 20028 53002 =
2018-01-19 17:54 METAR KBWI 192254Z 16004KT 10SM FEW160 FEW250 06/M08 A3003 RMK AO2 SLP169
                 T00561083 =
2018-01-19 16:54 METAR KBWI 192154Z COR 19004KT 10SM FEW160 FEW250 09/M11 A3002 RMK AO2 SLP168
                 T00941106 =
2018-01-19 15:54 METAR KBWI 192054Z 27005KT 10SM FEW160 SCT250 11/M11 A3003 RMK AO2 SLP169
                 T01061106 55009 =
2018-01-19 14:54 METAR KBWI 191954Z 20007KT 10SM FEW160 FEW250 10/M10 A3003 RMK AO2 SLP169
                 T01001100 =
2018-01-19 13:54 METAR KBWI 191854Z 25009KT 10SM FEW160 FEW250 10/M10 A3004 RMK AO2 SLP172
                 T01001100 =
2018-01-19 12:54 METAR KBWI 191754Z 24009KT 10SM FEW160 FEW250 09/M09 A3005 RMK AO2 SLP178
                 T00941094 10094 21067 58026 =
2018-01-19 11:54 METAR KBWI 191654Z 28014G21KT 10SM FEW160 SCT250 08/M09 A3009 RMK AO2 SLP189
                 T00781094 =
2018-01-19 10:54 METAR KBWI 191554Z 28011KT 10SM FEW090 SCT160 BKN250 06/M09 A3013 RMK AO2 SLP204
                 T00611094 =

Support USWX by starting your Amazon purchase here.